sensor_id;sensor_type;location;lat;lon;timestamp;P1;durP1;ratioP1;P2;durP2;ratioP2
1625;SDS011;806;48.770;9.156;2023-06-05T00:01:12;1.00;;;0.50;;
1625;SDS011;806;48.770;9.156;2023-06-05T00:03:40;0.90;;;0.60;;
1625;SDS011;806;48.770;9.156;2023-06-05T00:06:08;1.10;;;0.60;;
1625;SDS011;806;48.770;9.156;2023-06-05T00:08:36;1.00;;;0.60;;
1625;SDS011;806;48.770;9.156;2023-06-05T00:11:03;0.82;;;0.50;;
1625;SDS011;806;48.770;9.156;2023-06-05T00:13:29;1.10;;;0.50;;
1625;SDS011;806;48.770;9.156;2023-06-05T00:15:56;1.80;;;0.70;;
1625;SDS011;806;48.770;9.156;2023-06-05T00:18:23;1.00;;;0.60;;
1625;SDS011;806;48.770;9.156;2023-06-05T00:20:52;1.13;;;0.60;;
1625;SDS011;806;48.770;9.156;2023-06-05T00:23:19;0.82;;;0.50;;
1625;SDS011;806;48.770;9.156;2023-06-05T00:25:46;0.70;;;0.50;;
1625;SDS011;806;48.770;9.156;2023-06-05T00:28:13;0.80;;;0.50;;
1625;SDS011;806;48.770;9.156;2023-06-05T00:30:41;1.00;;;0.50;;
1625;SDS011;806;48.770;9.156;2023-06-05T00:33:07;0.90;;;0.50;;
1625;SDS011;806;48.770;9.156;2023-06-05T00:35:34;0.75;;;0.50;;
1625;SDS011;806;48.770;9.156;2023-06-05T00:38:03;0.80;;;0.50;;
1625;SDS011;806;48.770;9.156;2023-06-05T00:40:31;0.90;;;0.50;;
1625;SDS011;806;48.770;9.156;2023-06-05T00:42:58;1.17;;;0.50;;
1625;SDS011;806;48.770;9.156;2023-06-05T00:45:25;0.88;;;0.50;;
1625;SDS011;806;48.770;9.156;2023-06-05T00:47:52;1.00;;;0.60;;
1625;SDS011;806;48.770;9.156;2023-06-05T00:50:20;0.90;;;0.60;;
1625;SDS011;806;48.770;9.156;2023-06-05T00:52:47;1.60;;;0.60;;
1625;SDS011;806;48.770;9.156;2023-06-05T00:55:17;0.70;;;0.50;;
1625;SDS011;806;48.770;9.156;2023-06-05T00:57:44;0.90;;;0.60;;
1625;SDS011;806;48.770;9.156;2023-06-05T01:00:11;1.47;;;0.60;;
1625;SDS011;806;48.770;9.156;2023-06-05T01:02:41;0.70;;;0.50;;
1625;SDS011;806;48.770;9.156;2023-06-05T01:05:08;1.20;;;0.50;;
1625;SDS011;806;48.770;9.156;2023-06-05T01:07:35;0.80;;;0.50;;
1625;SDS011;806;48.770;9.156;2023-06-05T01:10:05;1.50;;;0.50;;
1625;SDS011;806;48.770;9.156;2023-06-05T01:12:36;0.85;;;0.50;;
1625;SDS011;806;48.770;9.156;2023-06-05T01:15:09;0.80;;;0.50;;
1625;SDS011;806;48.770;9.156;2023-06-05T01:17:37;1.02;;;0.60;;
1625;SDS011;806;48.770;9.156;2023-06-05T01:20:05;1.80;;;0.60;;
1625;SDS011;806;48.770;9.156;2023-06-05T01:22:34;0.70;;;0.50;;
1625;SDS011;806;48.770;9.156;2023-06-05T01:25:05;0.90;;;0.50;;
1625;SDS011;806;48.770;9.156;2023-06-05T01:27:35;1.20;;;0.50;;
1625;SDS011;806;48.770;9.156;2023-06-05T01:30:09;1.33;;;0.60;;
1625;SDS011;806;48.770;9.156;2023-06-05T01:32:51;0.80;;;0.50;;
1625;SDS011;806;48.770;9.156;2023-06-05T01:35:21;0.70;;;0.50;;
1625;SDS011;806;48.770;9.156;2023-06-05T01:37:53;1.88;;;0.60;;
1625;SDS011;806;48.770;9.156;2023-06-05T01:40:23;0.90;;;0.50;;
1625;SDS011;806;48.770;9.156;2023-06-05T01:42:52;0.70;;;0.50;;
1625;SDS011;806;48.770;9.156;2023-06-05T01:45:21;0.90;;;0.50;;
1625;SDS011;806;48.770;9.156;2023-06-05T01:47:48;0.80;;;0.50;;
1625;SDS011;806;48.770;9.156;2023-06-05T01:50:16;0.80;;;0.50;;
1625;SDS011;806;48.770;9.156;2023-06-05T01:52:44;0.90;;;0.60;;
1625;SDS011;806;48.770;9.156;2023-06-05T01:55:13;0.90;;;0.50;;
1625;SDS011;806;48.770;9.156;2023-06-05T01:57:44;0.70;;;0.50;;
1625;SDS011;806;48.770;9.156;2023-06-05T02:00:12;0.80;;;0.50;;
1625;SDS011;806;48.770;9.156;2023-06-05T02:02:41;0.75;;;0.50;;
1625;SDS011;806;48.770;9.156;2023-06-05T02:05:08;0.80;;;0.60;;
1625;SDS011;806;48.770;9.156;2023-06-05T02:07:37;0.80;;;0.50;;
1625;SDS011;806;48.770;9.156;2023-06-05T02:10:05;1.30;;;0.50;;
1625;SDS011;806;48.770;9.156;2023-06-05T02:12:33;0.80;;;0.50;;
1625;SDS011;806;48.770;9.156;2023-06-05T02:15:04;1.00;;;0.47;;
1625;SDS011;806;48.770;9.156;2023-06-05T02:17:31;0.80;;;0.50;;
1625;SDS011;806;48.770;9.156;2023-06-05T02:19:59;1.80;;;0.60;;
1625;SDS011;806;48.770;9.156;2023-06-05T02:22:26;0.90;;;0.50;;
1625;SDS011;806;48.770;9.156;2023-06-05T02:24:53;0.70;;;0.40;;
1625;SDS011;806;48.770;9.156;2023-06-05T02:27:21;0.90;;;0.50;;
1625;SDS011;806;48.770;9.156;2023-06-05T02:29:49;1.20;;;0.50;;
1625;SDS011;806;48.770;9.156;2023-06-05T02:32:18;1.60;;;0.50;;
1625;SDS011;806;48.770;9.156;2023-06-05T02:34:45;2.13;;;0.50;;
1625;SDS011;806;48.770;9.156;2023-06-05T02:37:13;0.70;;;0.50;;
1625;SDS011;806;48.770;9.156;2023-06-05T02:39:40;0.77;;;0.50;;
1625;SDS011;806;48.770;9.156;2023-06-05T02:42:07;1.10;;;0.50;;
1625;SDS011;806;48.770;9.156;2023-06-05T02:44:34;0.70;;;0.50;;
1625;SDS011;806;48.770;9.156;2023-06-05T02:47:01;0.80;;;0.50;;
1625;SDS011;806;48.770;9.156;2023-06-05T02:49:30;0.90;;;0.50;;
1625;SDS011;806;48.770;9.156;2023-06-05T02:51:57;0.90;;;0.50;;
1625;SDS011;806;48.770;9.156;2023-06-05T02:54:25;1.20;;;0.55;;
1625;SDS011;806;48.770;9.156;2023-06-05T02:56:53;0.80;;;0.50;;
1625;SDS011;806;48.770;9.156;2023-06-05T02:59:21;1.30;;;0.60;;
1625;SDS011;806;48.770;9.156;2023-06-05T03:01:49;1.70;;;0.50;;
1625;SDS011;806;48.770;9.156;2023-06-05T03:04:17;1.33;;;0.50;;
1625;SDS011;806;48.770;9.156;2023-06-05T03:06:47;1.17;;;0.50;;
1625;SDS011;806;48.770;9.156;2023-06-05T03:09:15;1.90;;;0.60;;
1625;SDS011;806;48.770;9.156;2023-06-05T03:11:42;0.90;;;0.50;;
1625;SDS011;806;48.770;9.156;2023-06-05T03:14:09;1.00;;;0.50;;
1625;SDS011;806;48.770;9.156;2023-06-05T03:16:36;0.73;;;0.50;;
1625;SDS011;806;48.770;9.156;2023-06-05T03:19:06;2.50;;;0.50;;
1625;SDS011;806;48.770;9.156;2023-06-05T03:21:34;1.50;;;0.60;;
1625;SDS011;806;48.770;9.156;2023-06-05T03:24:02;1.50;;;0.55;;
1625;SDS011;806;48.770;9.156;2023-06-05T03:26:30;1.05;;;0.60;;
1625;SDS011;806;48.770;9.156;2023-06-05T03:28:59;1.15;;;0.60;;
1625;SDS011;806;48.770;9.156;2023-06-05T03:31:26;0.98;;;0.60;;
1625;SDS011;806;48.770;9.156;2023-06-05T03:33:53;0.90;;;0.60;;
1625;SDS011;806;48.770;9.156;2023-06-05T03:36:20;0.80;;;0.60;;
1625;SDS011;806;48.770;9.156;2023-06-05T03:38:48;0.75;;;0.60;;
1625;SDS011;806;48.770;9.156;2023-06-05T03:41:16;1.73;;;0.50;;
1625;SDS011;806;48.770;9.156;2023-06-05T03:43:43;1.17;;;0.70;;
1625;SDS011;806;48.770;9.156;2023-06-05T03:46:11;1.02;;;0.60;;
1625;SDS011;806;48.770;9.156;2023-06-05T03:48:43;0.90;;;0.60;;
1625;SDS011;806;48.770;9.156;2023-06-05T03:51:10;0.90;;;0.57;;
1625;SDS011;806;48.770;9.156;2023-06-05T03:53:38;1.20;;;0.70;;
1625;SDS011;806;48.770;9.156;2023-06-05T03:56:08;1.20;;;0.60;;
1625;SDS011;806;48.770;9.156;2023-06-05T03:58:37;2.67;;;0.80;;
1625;SDS011;806;48.770;9.156;2023-06-05T04:01:05;1.00;;;0.60;;
1625;SDS011;806;48.770;9.156;2023-06-05T04:03:32;2.20;;;0.70;;
1625;SDS011;806;48.770;9.156;2023-06-05T04:06:02;0.77;;;0.50;;
1625;SDS011;806;48.770;9.156;2023-06-05T04:08:30;1.30;;;0.60;;
1625;SDS011;806;48.770;9.156;2023-06-05T04:10:57;0.80;;;0.60;;
1625;SDS011;806;48.770;9.156;2023-06-05T04:13:24;1.10;;;0.70;;
1625;SDS011;806;48.770;9.156;2023-06-05T04:15:53;1.50;;;0.70;;
1625;SDS011;806;48.770;9.156;2023-06-05T04:18:20;1.00;;;0.60;;
1625;SDS011;806;48.770;9.156;2023-06-05T04:20:47;2.10;;;0.60;;
1625;SDS011;806;48.770;9.156;2023-06-05T04:23:14;0.90;;;0.60;;
1625;SDS011;806;48.770;9.156;2023-06-05T04:25:41;2.50;;;0.60;;
1625;SDS011;806;48.770;9.156;2023-06-05T04:28:14;1.00;;;0.60;;
1625;SDS011;806;48.770;9.156;2023-06-05T04:30:41;0.90;;;0.57;;
1625;SDS011;806;48.770;9.156;2023-06-05T04:33:12;3.50;;;0.63;;
1625;SDS011;806;48.770;9.156;2023-06-05T04:35:39;2.20;;;0.70;;
1625;SDS011;806;48.770;9.156;2023-06-05T04:38:06;1.20;;;0.60;;
1625;SDS011;806;48.770;9.156;2023-06-05T04:40:33;2.55;;;0.70;;
1625;SDS011;806;48.770;9.156;2023-06-05T04:43:01;1.63;;;0.70;;
1625;SDS011;806;48.770;9.156;2023-06-05T04:45:28;1.23;;;0.70;;
1625;SDS011;806;48.770;9.156;2023-06-05T04:47:55;1.63;;;0.60;;
1625;SDS011;806;48.770;9.156;2023-06-05T04:50:24;1.30;;;0.60;;
1625;SDS011;806;48.770;9.156;2023-06-05T04:52:53;1.10;;;0.70;;
1625;SDS011;806;48.770;9.156;2023-06-05T04:55:20;1.73;;;0.60;;
1625;SDS011;806;48.770;9.156;2023-06-05T04:57:47;0.98;;;0.60;;
1625;SDS011;806;48.770;9.156;2023-06-05T05:00:15;1.77;;;0.70;;
1625;SDS011;806;48.770;9.156;2023-06-05T05:02:43;0.80;;;0.60;;
1625;SDS011;806;48.770;9.156;2023-06-05T05:05:10;1.90;;;0.70;;
1625;SDS011;806;48.770;9.156;2023-06-05T05:07:40;1.00;;;0.60;;
1625;SDS011;806;48.770;9.156;2023-06-05T05:10:08;1.47;;;0.60;;
1625;SDS011;806;48.770;9.156;2023-06-05T05:12:35;1.10;;;0.60;;
1625;SDS011;806;48.770;9.156;2023-06-05T05:15:03;0.90;;;0.60;;
1625;SDS011;806;48.770;9.156;2023-06-05T05:17:31;0.82;;;0.60;;
1625;SDS011;806;48.770;9.156;2023-06-05T05:19:58;1.10;;;0.70;;
1625;SDS011;806;48.770;9.156;2023-06-05T05:22:25;1.10;;;0.70;;
1625;SDS011;806;48.770;9.156;2023-06-05T05:24:54;1.10;;;0.68;;
1625;SDS011;806;48.770;9.156;2023-06-05T05:27:21;1.27;;;0.60;;
1625;SDS011;806;48.770;9.156;2023-06-05T05:29:49;1.10;;;0.70;;
1625;SDS011;806;48.770;9.156;2023-06-05T05:32:19;1.08;;;0.68;;
1625;SDS011;806;48.770;9.156;2023-06-05T05:34:46;0.90;;;0.60;;
1625;SDS011;806;48.770;9.156;2023-06-05T05:37:15;0.90;;;0.60;;
1625;SDS011;806;48.770;9.156;2023-06-05T05:39:42;0.90;;;0.60;;
1625;SDS011;806;48.770;9.156;2023-06-05T05:42:11;1.10;;;0.60;;
1625;SDS011;806;48.770;9.156;2023-06-05T05:44:38;2.08;;;0.60;;
1625;SDS011;806;48.770;9.156;2023-06-05T05:47:07;1.37;;;0.60;;
1625;SDS011;806;48.770;9.156;2023-06-05T05:49:34;0.98;;;0.60;;
1625;SDS011;806;48.770;9.156;2023-06-05T05:52:01;1.30;;;0.63;;
1625;SDS011;806;48.770;9.156;2023-06-05T05:54:28;1.10;;;0.60;;
1625;SDS011;806;48.770;9.156;2023-06-05T05:56:55;1.27;;;0.60;;
1625;SDS011;806;48.770;9.156;2023-06-05T05:59:24;0.80;;;0.60;;
1625;SDS011;806;48.770;9.156;2023-06-05T06:01:51;1.20;;;0.70;;
1625;SDS011;806;48.770;9.156;2023-06-05T06:04:18;2.40;;;0.70;;
1625;SDS011;806;48.770;9.156;2023-06-05T06:06:45;1.77;;;0.77;;
1625;SDS011;806;48.770;9.156;2023-06-05T06:09:17;1.20;;;0.70;;
1625;SDS011;806;48.770;9.156;2023-06-05T06:11:44;1.60;;;0.60;;
1625;SDS011;806;48.770;9.156;2023-06-05T06:14:12;1.00;;;0.68;;
1625;SDS011;806;48.770;9.156;2023-06-05T06:16:41;1.90;;;0.60;;
1625;SDS011;806;48.770;9.156;2023-06-05T06:19:08;1.60;;;0.70;;
1625;SDS011;806;48.770;9.156;2023-06-05T06:21:39;0.90;;;0.60;;
1625;SDS011;806;48.770;9.156;2023-06-05T06:24:06;1.90;;;0.60;;
1625;SDS011;806;48.770;9.156;2023-06-05T06:26:33;1.90;;;0.60;;
1625;SDS011;806;48.770;9.156;2023-06-05T06:29:02;0.90;;;0.65;;
1625;SDS011;806;48.770;9.156;2023-06-05T06:31:29;1.88;;;0.80;;
1625;SDS011;806;48.770;9.156;2023-06-05T06:34:00;1.00;;;0.70;;
1625;SDS011;806;48.770;9.156;2023-06-05T06:36:27;1.00;;;0.70;;
1625;SDS011;806;48.770;9.156;2023-06-05T06:38:55;2.80;;;0.70;;
1625;SDS011;806;48.770;9.156;2023-06-05T06:41:22;1.43;;;0.70;;
1625;SDS011;806;48.770;9.156;2023-06-05T06:43:48;1.08;;;0.70;;
1625;SDS011;806;48.770;9.156;2023-06-05T06:46:15;1.70;;;0.70;;
1625;SDS011;806;48.770;9.156;2023-06-05T06:48:42;1.20;;;0.63;;
1625;SDS011;806;48.770;9.156;2023-06-05T06:51:11;1.40;;;0.60;;
1625;SDS011;806;48.770;9.156;2023-06-05T06:53:38;1.30;;;0.80;;
1625;SDS011;806;48.770;9.156;2023-06-05T06:56:06;1.10;;;0.68;;
1625;SDS011;806;48.770;9.156;2023-06-05T06:58:34;1.00;;;0.70;;
1625;SDS011;806;48.770;9.156;2023-06-05T07:01:01;1.37;;;0.60;;
1625;SDS011;806;48.770;9.156;2023-06-05T07:03:28;3.10;;;0.70;;
1625;SDS011;806;48.770;9.156;2023-06-05T07:05:56;1.58;;;0.80;;
1625;SDS011;806;48.770;9.156;2023-06-05T07:08:24;1.63;;;0.80;;
1625;SDS011;806;48.770;9.156;2023-06-05T07:10:52;1.10;;;0.80;;
1625;SDS011;806;48.770;9.156;2023-06-05T07:13:20;1.20;;;0.80;;
1625;SDS011;806;48.770;9.156;2023-06-05T07:15:48;1.00;;;0.70;;
1625;SDS011;806;48.770;9.156;2023-06-05T07:18:17;1.20;;;0.70;;
1625;SDS011;806;48.770;9.156;2023-06-05T07:20:44;1.10;;;0.77;;
1625;SDS011;806;48.770;9.156;2023-06-05T07:23:13;1.98;;;0.70;;
1625;SDS011;806;48.770;9.156;2023-06-05T07:25:43;1.00;;;0.68;;
1625;SDS011;806;48.770;9.156;2023-06-05T07:28:11;1.23;;;0.80;;
1625;SDS011;806;48.770;9.156;2023-06-05T07:30:38;0.93;;;0.70;;
1625;SDS011;806;48.770;9.156;2023-06-05T07:33:08;1.95;;;0.75;;
1625;SDS011;806;48.770;9.156;2023-06-05T07:35:36;1.20;;;0.70;;
1625;SDS011;806;48.770;9.156;2023-06-05T07:38:03;1.73;;;0.80;;
1625;SDS011;806;48.770;9.156;2023-06-05T07:40:30;3.30;;;0.80;;
1625;SDS011;806;48.770;9.156;2023-06-05T07:42:58;1.10;;;0.80;;
1625;SDS011;806;48.770;9.156;2023-06-05T07:45:25;1.77;;;0.90;;
1625;SDS011;806;48.770;9.156;2023-06-05T07:47:52;1.85;;;0.90;;
1625;SDS011;806;48.770;9.156;2023-06-05T07:50:19;2.47;;;0.90;;
1625;SDS011;806;48.770;9.156;2023-06-05T07:52:47;1.60;;;0.82;;
1625;SDS011;806;48.770;9.156;2023-06-05T07:55:14;3.40;;;0.88;;
1625;SDS011;806;48.770;9.156;2023-06-05T07:57:42;1.00;;;0.80;;
1625;SDS011;806;48.770;9.156;2023-06-05T08:00:11;1.45;;;0.80;;
1625;SDS011;806;48.770;9.156;2023-06-05T08:02:39;1.80;;;0.80;;
1625;SDS011;806;48.770;9.156;2023-06-05T08:05:06;1.40;;;0.80;;
1625;SDS011;806;48.770;9.156;2023-06-05T08:07:34;2.70;;;0.80;;
1625;SDS011;806;48.770;9.156;2023-06-05T08:10:01;2.50;;;0.90;;
1625;SDS011;806;48.770;9.156;2023-06-05T08:12:28;1.50;;;0.80;;
1625;SDS011;806;48.770;9.156;2023-06-05T08:14:55;2.30;;;0.90;;
1625;SDS011;806;48.770;9.156;2023-06-05T08:17:23;1.60;;;1.10;;
1625;SDS011;806;48.770;9.156;2023-06-05T08:19:50;3.03;;;1.20;;
1625;SDS011;806;48.770;9.156;2023-06-05T08:22:17;2.72;;;0.90;;
1625;SDS011;806;48.770;9.156;2023-06-05T08:24:45;1.65;;;1.10;;
1625;SDS011;806;48.770;9.156;2023-06-05T08:27:13;1.20;;;0.90;;
1625;SDS011;806;48.770;9.156;2023-06-05T08:29:40;3.28;;;0.90;;
1625;SDS011;806;48.770;9.156;2023-06-05T08:32:07;1.85;;;1.00;;
1625;SDS011;806;48.770;9.156;2023-06-05T08:34:36;2.00;;;1.00;;
1625;SDS011;806;48.770;9.156;2023-06-05T08:37:03;1.30;;;1.00;;
1625;SDS011;806;48.770;9.156;2023-06-05T08:39:30;1.30;;;1.00;;
1625;SDS011;806;48.770;9.156;2023-06-05T08:41:58;2.10;;;1.13;;
1625;SDS011;806;48.770;9.156;2023-06-05T08:44:28;1.75;;;1.00;;
1625;SDS011;806;48.770;9.156;2023-06-05T08:46:58;1.42;;;1.00;;
1625;SDS011;806;48.770;9.156;2023-06-05T08:49:27;2.30;;;1.10;;
1625;SDS011;806;48.770;9.156;2023-06-05T08:52:00;1.70;;;1.10;;
1625;SDS011;806;48.770;9.156;2023-06-05T08:54:29;2.50;;;1.10;;
1625;SDS011;806;48.770;9.156;2023-06-05T08:57:02;1.65;;;1.00;;
1625;SDS011;806;48.770;9.156;2023-06-05T08:59:31;1.88;;;1.10;;
1625;SDS011;806;48.770;9.156;2023-06-05T09:01:59;2.70;;;1.10;;
1625;SDS011;806;48.770;9.156;2023-06-05T09:04:26;1.90;;;1.00;;
1625;SDS011;806;48.770;9.156;2023-06-05T09:06:55;1.20;;;1.00;;
1625;SDS011;806;48.770;9.156;2023-06-05T09:09:24;1.67;;;1.10;;
1625;SDS011;806;48.770;9.156;2023-06-05T09:12:00;3.40;;;1.00;;
1625;SDS011;806;48.770;9.156;2023-06-05T09:14:28;1.80;;;1.30;;
1625;SDS011;806;48.770;9.156;2023-06-05T09:16:56;2.10;;;1.10;;
1625;SDS011;806;48.770;9.156;2023-06-05T09:19:23;1.50;;;1.20;;
1625;SDS011;806;48.770;9.156;2023-06-05T09:21:53;1.60;;;1.25;;
1625;SDS011;806;48.770;9.156;2023-06-05T09:24:21;1.20;;;1.00;;
1625;SDS011;806;48.770;9.156;2023-06-05T09:26:53;1.30;;;1.00;;
1625;SDS011;806;48.770;9.156;2023-06-05T09:29:23;1.80;;;1.00;;
1625;SDS011;806;48.770;9.156;2023-06-05T09:31:51;1.60;;;1.00;;
1625;SDS011;806;48.770;9.156;2023-06-05T09:34:20;4.55;;;2.60;;
1625;SDS011;806;48.770;9.156;2023-06-05T09:36:48;2.10;;;1.10;;
1625;SDS011;806;48.770;9.156;2023-06-05T09:39:15;2.50;;;1.10;;
1625;SDS011;806;48.770;9.156;2023-06-05T09:41:44;2.88;;;1.20;;
1625;SDS011;806;48.770;9.156;2023-06-05T09:44:12;1.80;;;1.10;;
1625;SDS011;806;48.770;9.156;2023-06-05T09:46:49;2.37;;;1.07;;
1625;SDS011;806;48.770;9.156;2023-06-05T09:49:20;2.00;;;1.10;;
1625;SDS011;806;48.770;9.156;2023-06-05T09:51:48;1.30;;;1.15;;
1625;SDS011;806;48.770;9.156;2023-06-05T09:54:15;1.40;;;1.20;;
1625;SDS011;806;48.770;9.156;2023-06-05T09:56:45;1.20;;;1.00;;
1625;SDS011;806;48.770;9.156;2023-06-05T09:59:19;1.20;;;0.90;;
1625;SDS011;806;48.770;9.156;2023-06-05T10:01:48;1.60;;;1.10;;
1625;SDS011;806;48.770;9.156;2023-06-05T10:04:18;5.10;;;1.27;;
1625;SDS011;806;48.770;9.156;2023-06-05T10:06:48;1.90;;;1.20;;
1625;SDS011;806;48.770;9.156;2023-06-05T10:09:17;1.50;;;1.10;;
1625;SDS011;806;48.770;9.156;2023-06-05T10:11:48;1.65;;;1.17;;
1625;SDS011;806;48.770;9.156;2023-06-05T10:14:16;2.67;;;1.20;;
1625;SDS011;806;48.770;9.156;2023-06-05T10:16:44;1.40;;;1.10;;
1625;SDS011;806;48.770;9.156;2023-06-05T10:19:15;1.30;;;1.07;;
1625;SDS011;806;48.770;9.156;2023-06-05T10:21:45;2.60;;;1.10;;
1625;SDS011;806;48.770;9.156;2023-06-05T10:24:14;1.50;;;1.20;;
1625;SDS011;806;48.770;9.156;2023-06-05T10:30:25;2.03;;;1.10;;
1625;SDS011;806;48.770;9.156;2023-06-05T10:33:21;1.40;;;1.20;;
1625;SDS011;806;48.770;9.156;2023-06-05T10:36:03;1.10;;;1.00;;
1625;SDS011;806;48.770;9.156;2023-06-05T10:38:38;1.40;;;0.80;;
1625;SDS011;806;48.770;9.156;2023-06-05T10:41:06;1.20;;;0.90;;
1625;SDS011;806;48.770;9.156;2023-06-05T10:43:36;1.30;;;0.80;;
1625;SDS011;806;48.770;9.156;2023-06-05T10:46:27;1.10;;;0.90;;
1625;SDS011;806;48.770;9.156;2023-06-05T10:49:09;1.35;;;0.80;;
1625;SDS011;806;48.770;9.156;2023-06-05T10:51:39;1.50;;;0.90;;
1625;SDS011;806;48.770;9.156;2023-06-05T10:54:10;1.45;;;0.90;;
1625;SDS011;806;48.770;9.156;2023-06-05T10:56:56;1.15;;;0.80;;
1625;SDS011;806;48.770;9.156;2023-06-05T10:59:26;1.25;;;0.80;;
1625;SDS011;806;48.770;9.156;2023-06-05T11:05:08;1.48;;;0.90;;
1625;SDS011;806;48.770;9.156;2023-06-05T11:07:36;0.95;;;0.80;;
1625;SDS011;806;48.770;9.156;2023-06-05T11:10:08;1.00;;;0.80;;
1625;SDS011;806;48.770;9.156;2023-06-05T11:12:56;1.30;;;0.90;;
1625;SDS011;806;48.770;9.156;2023-06-05T11:15:38;1.10;;;0.80;;
1625;SDS011;806;48.770;9.156;2023-06-05T11:18:31;1.05;;;0.90;;
1625;SDS011;806;48.770;9.156;2023-06-05T11:20:59;1.13;;;0.80;;
1625;SDS011;806;48.770;9.156;2023-06-05T11:23:27;1.30;;;0.80;;
1625;SDS011;806;48.770;9.156;2023-06-05T11:25:55;2.00;;;1.00;;
1625;SDS011;806;48.770;9.156;2023-06-05T11:28:42;1.53;;;0.80;;
1625;SDS011;806;48.770;9.156;2023-06-05T11:31:11;1.70;;;0.90;;
1625;SDS011;806;48.770;9.156;2023-06-05T11:33:39;1.00;;;0.80;;
1625;SDS011;806;48.770;9.156;2023-06-05T11:36:06;1.10;;;0.85;;
1625;SDS011;806;48.770;9.156;2023-06-05T11:38:34;1.08;;;0.80;;
1625;SDS011;806;48.770;9.156;2023-06-05T11:41:05;1.20;;;0.80;;
1625;SDS011;806;48.770;9.156;2023-06-05T11:43:40;1.10;;;0.90;;
1625;SDS011;806;48.770;9.156;2023-06-05T11:46:08;1.40;;;0.70;;
1625;SDS011;806;48.770;9.156;2023-06-05T11:48:43;1.02;;;0.80;;
1625;SDS011;806;48.770;9.156;2023-06-05T11:51:11;0.90;;;0.70;;
1625;SDS011;806;48.770;9.156;2023-06-05T11:53:43;1.00;;;0.80;;
1625;SDS011;806;48.770;9.156;2023-06-05T11:56:12;1.10;;;0.80;;
1625;SDS011;806;48.770;9.156;2023-06-05T11:58:41;1.55;;;0.90;;
1625;SDS011;806;48.770;9.156;2023-06-05T12:01:10;1.10;;;0.80;;
1625;SDS011;806;48.770;9.156;2023-06-05T12:03:40;1.10;;;0.80;;
1625;SDS011;806;48.770;9.156;2023-06-05T12:06:09;1.00;;;0.75;;
1625;SDS011;806;48.770;9.156;2023-06-05T12:08:38;0.90;;;0.70;;
1625;SDS011;806;48.770;9.156;2023-06-05T12:11:18;1.00;;;0.80;;
1625;SDS011;806;48.770;9.156;2023-06-05T12:13:48;1.10;;;0.80;;
1625;SDS011;806;48.770;9.156;2023-06-05T12:16:15;1.08;;;0.70;;
1625;SDS011;806;48.770;9.156;2023-06-05T12:18:43;1.63;;;0.70;;
1625;SDS011;806;48.770;9.156;2023-06-05T12:21:20;1.40;;;0.90;;
1625;SDS011;806;48.770;9.156;2023-06-05T12:23:48;1.40;;;0.90;;
1625;SDS011;806;48.770;9.156;2023-06-05T12:26:16;1.20;;;0.80;;
1625;SDS011;806;48.770;9.156;2023-06-05T12:28:44;1.20;;;0.75;;
1625;SDS011;806;48.770;9.156;2023-06-05T12:34:01;1.30;;;0.80;;
1625;SDS011;806;48.770;9.156;2023-06-05T12:36:30;1.00;;;0.80;;
1625;SDS011;806;48.770;9.156;2023-06-05T12:39:08;1.60;;;0.80;;
1625;SDS011;806;48.770;9.156;2023-06-05T12:41:36;1.13;;;0.80;;
1625;SDS011;806;48.770;9.156;2023-06-05T12:44:03;1.10;;;0.80;;
1625;SDS011;806;48.770;9.156;2023-06-05T12:46:31;0.90;;;0.80;;
1625;SDS011;806;48.770;9.156;2023-06-05T12:48:58;1.40;;;0.80;;
1625;SDS011;806;48.770;9.156;2023-06-05T12:51:26;1.00;;;0.70;;
1625;SDS011;806;48.770;9.156;2023-06-05T12:53:54;1.33;;;0.80;;
1625;SDS011;806;48.770;9.156;2023-06-05T12:56:22;1.00;;;0.80;;
1625;SDS011;806;48.770;9.156;2023-06-05T12:58:50;1.00;;;0.80;;
1625;SDS011;806;48.770;9.156;2023-06-05T13:01:19;1.10;;;0.80;;
1625;SDS011;806;48.770;9.156;2023-06-05T13:03:47;0.93;;;0.70;;
1625;SDS011;806;48.770;9.156;2023-06-05T13:06:14;1.05;;;0.80;;
1625;SDS011;806;48.770;9.156;2023-06-05T13:08:42;1.63;;;0.80;;
1625;SDS011;806;48.770;9.156;2023-06-05T13:11:11;1.13;;;0.90;;
1625;SDS011;806;48.770;9.156;2023-06-05T13:13:38;1.20;;;0.90;;
1625;SDS011;806;48.770;9.156;2023-06-05T13:16:05;1.73;;;0.80;;
1625;SDS011;806;48.770;9.156;2023-06-05T13:18:33;1.20;;;0.90;;
1625;SDS011;806;48.770;9.156;2023-06-05T13:21:02;1.90;;;0.80;;
1625;SDS011;806;48.770;9.156;2023-06-05T13:23:30;1.20;;;0.90;;
1625;SDS011;806;48.770;9.156;2023-06-05T13:25:57;1.02;;;0.80;;
1625;SDS011;806;48.770;9.156;2023-06-05T13:28:26;1.15;;;0.90;;
1625;SDS011;806;48.770;9.156;2023-06-05T13:30:53;1.30;;;0.80;;
1625;SDS011;806;48.770;9.156;2023-06-05T13:33:21;3.00;;;0.90;;
1625;SDS011;806;48.770;9.156;2023-06-05T13:35:49;1.40;;;0.90;;
1625;SDS011;806;48.770;9.156;2023-06-05T13:38:17;1.90;;;0.90;;
1625;SDS011;806;48.770;9.156;2023-06-05T13:40:44;1.10;;;0.90;;
1625;SDS011;806;48.770;9.156;2023-06-05T13:43:14;1.40;;;0.80;;
1625;SDS011;806;48.770;9.156;2023-06-05T13:45:42;1.40;;;0.90;;
1625;SDS011;806;48.770;9.156;2023-06-05T13:48:09;0.90;;;0.80;;
1625;SDS011;806;48.770;9.156;2023-06-05T13:50:36;1.13;;;0.90;;
1625;SDS011;806;48.770;9.156;2023-06-05T13:53:03;1.65;;;0.90;;
1625;SDS011;806;48.770;9.156;2023-06-05T13:55:30;1.00;;;0.80;;
1625;SDS011;806;48.770;9.156;2023-06-05T13:57:57;1.80;;;0.90;;
1625;SDS011;806;48.770;9.156;2023-06-05T14:00:27;1.20;;;0.90;;
1625;SDS011;806;48.770;9.156;2023-06-05T14:02:58;1.00;;;0.70;;
1625;SDS011;806;48.770;9.156;2023-06-05T14:05:25;1.20;;;0.90;;
1625;SDS011;806;48.770;9.156;2023-06-05T14:07:53;1.70;;;0.80;;
1625;SDS011;806;48.770;9.156;2023-06-05T14:10:20;1.20;;;0.90;;
1625;SDS011;806;48.770;9.156;2023-06-05T14:12:48;1.35;;;0.90;;
1625;SDS011;806;48.770;9.156;2023-06-05T14:15:16;1.70;;;0.90;;
1625;SDS011;806;48.770;9.156;2023-06-05T14:17:43;1.20;;;0.80;;
1625;SDS011;806;48.770;9.156;2023-06-05T14:20:12;1.10;;;0.80;;
1625;SDS011;806;48.770;9.156;2023-06-05T14:22:39;1.00;;;0.80;;
1625;SDS011;806;48.770;9.156;2023-06-05T14:25:07;0.95;;;0.80;;
1625;SDS011;806;48.770;9.156;2023-06-05T14:27:35;2.20;;;0.90;;
1625;SDS011;806;48.770;9.156;2023-06-05T14:30:02;1.20;;;0.90;;
1625;SDS011;806;48.770;9.156;2023-06-05T14:32:30;3.10;;;0.90;;
1625;SDS011;806;48.770;9.156;2023-06-05T14:34:57;1.05;;;0.90;;
1625;SDS011;806;48.770;9.156;2023-06-05T14:37:25;1.15;;;0.80;;
1625;SDS011;806;48.770;9.156;2023-06-05T14:39:53;1.65;;;0.90;;
1625;SDS011;806;48.770;9.156;2023-06-05T14:42:21;1.10;;;0.80;;
1625;SDS011;806;48.770;9.156;2023-06-05T14:44:48;1.20;;;0.80;;
1625;SDS011;806;48.770;9.156;2023-06-05T14:47:16;1.07;;;0.90;;
1625;SDS011;806;48.770;9.156;2023-06-05T14:49:43;1.10;;;0.80;;
1625;SDS011;806;48.770;9.156;2023-06-05T14:52:10;1.20;;;0.80;;
1625;SDS011;806;48.770;9.156;2023-06-05T14:54:38;1.10;;;0.80;;
1625;SDS011;806;48.770;9.156;2023-06-05T14:57:05;1.20;;;0.80;;
1625;SDS011;806;48.770;9.156;2023-06-05T14:59:33;1.90;;;0.90;;
1625;SDS011;806;48.770;9.156;2023-06-05T15:02:00;1.30;;;0.90;;
1625;SDS011;806;48.770;9.156;2023-06-05T15:04:28;1.40;;;0.80;;
1625;SDS011;806;48.770;9.156;2023-06-05T15:06:56;1.40;;;0.90;;
1625;SDS011;806;48.770;9.156;2023-06-05T15:09:23;1.80;;;0.80;;
1625;SDS011;806;48.770;9.156;2023-06-05T15:11:51;1.20;;;0.90;;
1625;SDS011;806;48.770;9.156;2023-06-05T15:14:20;1.20;;;0.90;;
1625;SDS011;806;48.770;9.156;2023-06-05T15:16:48;1.10;;;0.82;;
1625;SDS011;806;48.770;9.156;2023-06-05T15:19:16;3.17;;;0.85;;
1625;SDS011;806;48.770;9.156;2023-06-05T15:21:43;1.00;;;0.80;;
1625;SDS011;806;48.770;9.156;2023-06-05T15:24:10;1.63;;;0.80;;
1625;SDS011;806;48.770;9.156;2023-06-05T15:26:37;1.20;;;0.80;;
1625;SDS011;806;48.770;9.156;2023-06-05T15:29:05;1.50;;;0.80;;
1625;SDS011;806;48.770;9.156;2023-06-05T15:31:32;1.45;;;0.82;;
1625;SDS011;806;48.770;9.156;2023-06-05T15:33:59;1.20;;;0.80;;
1625;SDS011;806;48.770;9.156;2023-06-05T15:36:27;0.90;;;0.70;;
1625;SDS011;806;48.770;9.156;2023-06-05T15:38:54;1.10;;;0.80;;
1625;SDS011;806;48.770;9.156;2023-06-05T15:41:21;1.40;;;0.80;;
1625;SDS011;806;48.770;9.156;2023-06-05T15:43:49;1.00;;;0.70;;
1625;SDS011;806;48.770;9.156;2023-06-05T15:46:17;1.30;;;0.80;;
1625;SDS011;806;48.770;9.156;2023-06-05T15:48:45;1.20;;;0.70;;